Time;durP1;ratioP1;P1;durP2;ratioP2;P2;SDS_P1;SDS_P2;PMS_P1;PMS_P2;Temp;Humidity;BMP_temperature;BMP_pressure;BME280_temperature;BME280_humidity;BME280_pressure;Samples;Min_cycle;Max_cycle;Signal;HPM_P1;HPM_P2
2022/06/26 00:01:01;;;;;;;11.27;9.32;;;;;;;;;;5017767;28;20050;-65
2022/06/26 00:03:27;;;;;;;12.57;10.05;;;;;;;;;;5031669;28;20706;-65
2022/06/26 00:05:54;;;;;;;11.13;8.98;;;;;;;;;;5039727;28;20124;-64
2022/06/26 00:08:21;;;;;;;12.60;8.85;;;;;;;;;;5033802;28;20056;-65
2022/06/26 00:10:47;;;;;;;13.55;9.90;;;;;;;;;;5034740;28;20345;-65
2022/06/26 00:13:14;;;;;;;11.52;10.25;;;;;;;;;;5018493;28;20437;-66
2022/06/26 00:15:41;;;;;;;13.57;9.75;;;;;;;;;;5024253;28;20049;-65
2022/06/26 00:18:07;;;;;;;15.23;10.13;;;;;;;;;;5020611;28;20901;-64
2022/06/26 00:20:33;;;;;;;13.60;9.82;;;;;;;;;;5035407;28;20052;-64
2022/06/26 00:23:00;;;;;;;16.23;10.80;;;;;;;;;;5040151;28;20049;-64
2022/06/26 00:25:26;;;;;;;15.55;10.77;;;;;;;;;;5030827;28;20045;-64
2022/06/26 00:27:52;;;;;;;19.15;11.82;;;;;;;;;;5043079;28;20048;-63
2022/06/26 00:30:19;;;;;;;19.67;12.68;;;;;;;;;;5029623;28;20236;-63
2022/06/26 00:32:45;;;;;;;12.85;11.13;;;;;;;;;;5030178;28;20037;-63
2022/06/26 00:35:12;;;;;;;15.15;11.25;;;;;;;;;;5027785;28;20425;-63
2022/06/26 00:37:40;;;;;;;13.85;10.88;;;;;;;;;;5033816;28;20474;-65
2022/06/26 00:40:07;;;;;;;12.88;9.43;;;;;;;;;;5024540;28;20059;-64
2022/06/26 00:42:34;;;;;;;13.33;9.73;;;;;;;;;;5020282;28;20135;-65
2022/06/26 00:45:00;;;;;;;18.00;11.70;;;;;;;;;;5028080;28;20520;-65
2022/06/26 00:47:27;;;;;;;15.43;11.60;;;;;;;;;;5016992;28;20045;-64
2022/06/26 00:49:53;;;;;;;25.23;13.80;;;;;;;;;;5041257;28;20069;-64
2022/06/26 00:52:20;;;;;;;14.80;12.82;;;;;;;;;;5035244;28;20064;-64
2022/06/26 00:54:48;;;;;;;29.35;13.48;;;;;;;;;;5037054;28;20133;-64
2022/06/26 00:57:14;;;;;;;19.45;13.40;;;;;;;;;;5034373;28;20328;-64
2022/06/26 00:59:41;;;;;;;14.75;10.52;;;;;;;;;;5028086;28;20049;-64
2022/06/26 01:02:08;;;;;;;21.35;13.57;;;;;;;;;;5030435;28;20059;-65
2022/06/26 01:04:34;;;;;;;17.20;12.57;;;;;;;;;;5029902;28;20235;-65
2022/06/26 01:07:01;;;;;;;15.20;12.77;;;;;;;;;;5039807;28;20072;-65
2022/06/26 01:09:27;;;;;;;14.90;12.93;;;;;;;;;;5035105;28;20091;-65
2022/06/26 01:11:53;;;;;;;17.15;14.82;;;;;;;;;;5023699;28;20045;-64
2022/06/26 01:14:20;;;;;;;15.10;13.48;;;;;;;;;;5016264;28;20055;-64
2022/06/26 01:16:46;;;;;;;18.10;15.70;;;;;;;;;;5011374;28;20390;-64
2022/06/26 01:19:15;;;;;;;20.40;14.85;;;;;;;;;;5037893;28;20063;-66
2022/06/26 01:21:41;;;;;;;;;;;;;;;;;;5030226;28;20520;-65
2022/06/26 01:24:07;;;;;;;14.60;11.60;;;;;;;;;;5031361;28;20047;-65
2022/06/26 01:26:35;;;;;;;15.55;13.35;;;;;;;;;;5019514;28;20059;-65
2022/06/26 01:29:01;;;;;;;17.05;14.35;;;;;;;;;;5012502;28;20524;-64
2022/06/26 01:31:28;;;;;;;17.85;13.40;;;;;;;;;;5037509;28;20063;-66
2022/06/26 01:33:55;;;;;;;14.65;13.13;;;;;;;;;;5031625;28;20123;-65
2022/06/26 01:36:21;;;;;;;15.80;14.25;;;;;;;;;;5052615;28;20044;-64
2022/06/26 01:38:47;;;;;;;14.10;12.65;;;;;;;;;;5045499;28;20049;-63
2022/06/26 01:41:13;;;;;;;15.95;14.25;;;;;;;;;;5026499;28;20052;-65
2022/06/26 01:43:40;;;;;;;16.92;13.90;;;;;;;;;;5030069;28;20053;-64
2022/06/26 01:46:07;;;;;;;16.55;14.68;;;;;;;;;;5028353;28;20824;-65
2022/06/26 01:48:35;;;;;;;18.17;15.60;;;;;;;;;;5030256;28;20049;-65
2022/06/26 01:51:01;;;;;;;;;;;;;;;;;;5020234;28;20047;-63
2022/06/26 01:53:28;;;;;;;18.75;15.15;;;;;;;;;;5033357;28;20283;-64
2022/06/26 01:55:54;;;;;;;16.92;12.00;;;;;;;;;;5015231;28;20045;-64
2022/06/26 01:58:21;;;;;;;17.15;14.85;;;;;;;;;;5026833;28;20045;-65
2022/06/26 02:00:48;;;;;;;17.30;14.15;;;;;;;;;;5039703;28;20041;-65
2022/06/26 02:03:15;;;;;;;18.13;15.52;;;;;;;;;;5025649;28;20049;-64
2022/06/26 02:05:42;;;;;;;16.15;14.48;;;;;;;;;;5040520;28;20072;-66
2022/06/26 02:08:09;;;;;;;14.68;13.13;;;;;;;;;;5030023;28;20492;-65
2022/06/26 02:13:36;;;;;;;16.65;14.55;;;;;;;;;;5044499;28;20185;-64
2022/06/26 02:16:03;;;;;;;14.40;12.88;;;;;;;;;;5020471;28;20059;-64
2022/06/26 02:18:31;;;;;;;15.20;13.05;;;;;;;;;;5047450;28;20053;-64
2022/06/26 02:20:57;;;;;;;14.82;13.30;;;;;;;;;;5028143;28;20148;-64
2022/06/26 02:23:24;;;;;;;13.95;12.40;;;;;;;;;;5025899;28;20053;-64
2022/06/26 02:25:50;;;;;;;14.32;12.68;;;;;;;;;;5031764;28;20059;-65
2022/06/26 02:28:17;;;;;;;16.27;13.88;;;;;;;;;;5037439;28;20713;-64
2022/06/26 02:30:44;;;;;;;14.52;13.02;;;;;;;;;;5038760;28;20049;-64
2022/06/26 02:33:11;;;;;;;15.47;12.70;;;;;;;;;;5020611;28;20053;-64
2022/06/26 02:35:37;;;;;;;14.85;13.00;;;;;;;;;;5028980;28;20048;-64
2022/06/26 02:38:03;;;;;;;15.52;12.70;;;;;;;;;;5026264;28;20049;-64
2022/06/26 02:40:30;;;;;;;15.45;13.07;;;;;;;;;;5036754;28;20049;-65
2022/06/26 02:42:57;;;;;;;15.70;11.43;;;;;;;;;;5033702;28;20327;-63
2022/06/26 02:45:24;;;;;;;16.98;12.73;;;;;;;;;;5033946;28;20160;-65
2022/06/26 02:47:50;;;;;;;14.68;12.75;;;;;;;;;;5027935;28;20059;-65
2022/06/26 02:50:17;;;;;;;13.63;11.57;;;;;;;;;;5023029;28;20129;-65
2022/06/26 02:52:43;;;;;;;16.65;12.90;;;;;;;;;;5026269;28;20421;-65
2022/06/26 02:55:10;;;;;;;14.40;12.13;;;;;;;;;;5034574;28;20061;-65
2022/06/26 02:57:36;;;;;;;14.63;12.07;;;;;;;;;;5033678;28;20837;-65
2022/06/26 03:00:04;;;;;;;17.17;12.70;;;;;;;;;;5036946;28;20060;-65
2022/06/26 03:02:30;;;;;;;15.00;12.00;;;;;;;;;;5016016;28;20164;-65
2022/06/26 03:04:57;;;;;;;14.80;12.70;;;;;;;;;;5030583;28;20053;-66
2022/06/26 03:07:23;;;;;;;14.85;12.40;;;;;;;;;;5025401;28;20052;-65
2022/06/26 03:09:49;;;;;;;13.18;11.88;;;;;;;;;;5039700;28;20184;-65
2022/06/26 03:12:18;;;;;;;13.95;11.95;;;;;;;;;;5020390;28;20045;-65
2022/06/26 03:14:44;;;;;;;13.65;12.20;;;;;;;;;;5030453;28;20051;-65
2022/06/26 03:17:11;;;;;;;14.20;12.70;;;;;;;;;;5028433;28;20059;-64
2022/06/26 03:19:37;;;;;;;15.10;12.63;;;;;;;;;;5021538;28;20056;-65
2022/06/26 03:22:04;;;;;;;14.00;12.35;;;;;;;;;;5038445;28;20051;-65
2022/06/26 03:24:30;;;;;;;18.27;13.20;;;;;;;;;;5030283;28;20053;-66
2022/06/26 03:26:56;;;;;;;15.73;12.07;;;;;;;;;;5029230;28;20061;-64
2022/06/26 03:29:24;;;;;;;15.95;13.65;;;;;;;;;;5025091;28;20059;-65
2022/06/26 03:31:51;;;;;;;14.30;11.98;;;;;;;;;;5030525;28;20041;-64
2022/06/26 03:34:17;;;;;;;16.38;13.13;;;;;;;;;;5025057;28;20041;-64
2022/06/26 03:36:44;;;;;;;17.50;14.10;;;;;;;;;;5030638;28;20055;-65
2022/06/26 03:39:10;;;;;;;18.08;14.27;;;;;;;;;;5034149;28;20140;-66
2022/06/26 03:41:36;;;;;;;12.63;11.25;;;;;;;;;;5022838;28;20668;-65
2022/06/26 03:44:03;;;;;;;19.73;15.48;;;;;;;;;;5043930;28;20131;-65
2022/06/26 03:46:29;;;;;;;18.00;14.40;;;;;;;;;;5024396;28;20455;-65
2022/06/26 03:48:56;;;;;;;18.48;15.23;;;;;;;;;;5029373;28;20063;-65
2022/06/26 03:51:22;;;;;;;17.95;16.05;;;;;;;;;;5033280;28;20049;-65
2022/06/26 03:53:48;;;;;;;18.25;14.63;;;;;;;;;;5024375;28;20054;-65
2022/06/26 03:56:15;;;;;;;21.88;16.85;;;;;;;;;;5034821;28;20045;-65
2022/06/26 03:58:41;;;;;;;18.35;14.90;;;;;;;;;;5022795;28;20045;-64
2022/06/26 04:01:07;;;;;;;18.88;16.05;;;;;;;;;;5042031;28;20746;-65
2022/06/26 04:03:34;;;;;;;19.98;16.00;;;;;;;;;;5039012;28;20047;-65
2022/06/26 04:06:00;;;;;;;18.77;14.68;;;;;;;;;;5034456;28;20045;-64
2022/06/26 04:08:26;;;;;;;19.38;16.20;;;;;;;;;;5028254;28;20055;-65
2022/06/26 04:10:53;;;;;;;20.35;16.65;;;;;;;;;;5016593;28;20132;-65
2022/06/26 04:13:19;;;;;;;22.05;16.08;;;;;;;;;;5028762;28;20087;-65
2022/06/26 04:15:45;;;;;;;21.33;15.25;;;;;;;;;;5032670;28;20348;-65
2022/06/26 04:18:12;;;;;;;20.52;15.80;;;;;;;;;;5026804;28;20453;-64
2022/06/26 04:20:38;;;;;;;22.05;15.65;;;;;;;;;;5041587;28;20064;-64
2022/06/26 04:23:07;;;;;;;22.15;15.27;;;;;;;;;;5029205;28;20057;-66
2022/06/26 04:25:34;;;;;;;20.02;15.65;;;;;;;;;;5036964;28;20485;-65
2022/06/26 04:28:01;;;;;;;18.27;14.68;;;;;;;;;;5031387;28;20425;-65
2022/06/26 04:30:27;;;;;;;20.17;14.93;;;;;;;;;;5045183;28;20044;-65
2022/06/26 04:32:54;;;;;;;22.13;15.35;;;;;;;;;;5031023;28;20373;-65
2022/06/26 04:35:20;;;;;;;23.25;16.42;;;;;;;;;;5035648;28;20051;-65
2022/06/26 04:37:47;;;;;;;23.15;16.00;;;;;;;;;;5039408;28;20051;-65
2022/06/26 04:40:13;;;;;;;23.33;16.02;;;;;;;;;;5028709;28;20136;-65
2022/06/26 04:42:41;;;;;;;19.90;15.18;;;;;;;;;;5037875;28;20048;-65
2022/06/26 04:45:08;;;;;;;23.08;15.70;;;;;;;;;;5028852;28;20052;-66
2022/06/26 04:47:34;;;;;;;19.52;15.07;;;;;;;;;;5025746;28;20053;-65
2022/06/26 04:50:01;;;;;;;20.00;15.15;;;;;;;;;;5025575;28;20068;-65
2022/06/26 04:52:27;;;;;;;19.33;14.88;;;;;;;;;;5022176;28;20045;-65
2022/06/26 04:54:55;;;;;;;19.48;13.50;;;;;;;;;;5029665;28;20041;-65
2022/06/26 04:57:22;;;;;;;20.90;14.40;;;;;;;;;;5031326;28;20049;-65
2022/06/26 04:59:48;;;;;;;19.25;14.25;;;;;;;;;;5042336;28;20045;-66
2022/06/26 05:02:15;;;;;;;20.83;13.98;;;;;;;;;;5027551;28;20156;-64
2022/06/26 05:04:41;;;;;;;22.00;13.63;;;;;;;;;;5033323;28;20537;-65
2022/06/26 05:07:07;;;;;;;16.30;12.95;;;;;;;;;;5029908;28;20076;-65
2022/06/26 05:09:34;;;;;;;19.92;13.77;;;;;;;;;;5026952;28;20801;-66
2022/06/26 05:12:01;;;;;;;18.58;14.23;;;;;;;;;;5038226;28;20059;-64
2022/06/26 05:14:27;;;;;;;21.00;15.70;;;;;;;;;;5031647;28;20048;-65
2022/06/26 05:16:53;;;;;;;22.38;17.13;;;;;;;;;;5036049;28;20055;-66
2022/06/26 05:19:20;;;;;;;23.33;16.92;;;;;;;;;;5031632;28;20076;-65
2022/06/26 05:21:53;;;;;;;21.63;17.17;;;;;;;;;;5018731;28;20049;-65
2022/06/26 05:24:20;;;;;;;22.25;16.25;;;;;;;;;;5024187;28;20388;-65
2022/06/26 05:26:46;;;;;;;22.35;16.00;;;;;;;;;;5021176;28;20461;-65
2022/06/26 05:29:12;;;;;;;19.20;15.23;;;;;;;;;;5037966;28;20055;-65
2022/06/26 05:31:39;;;;;;;22.90;15.43;;;;;;;;;;5032125;28;20466;-65
2022/06/26 05:34:05;;;;;;;18.48;15.10;;;;;;;;;;5039318;28;20547;-65
2022/06/26 05:36:32;;;;;;;25.45;15.75;;;;;;;;;;5034432;28;20564;-64
2022/06/26 05:38:58;;;;;;;18.92;14.07;;;;;;;;;;5032736;28;20057;-64
2022/06/26 05:41:24;;;;;;;21.45;14.40;;;;;;;;;;5040197;28;20056;-64
2022/06/26 05:43:51;;;;;;;23.25;14.20;;;;;;;;;;5030450;28;20048;-65
2022/06/26 05:46:17;;;;;;;22.00;13.80;;;;;;;;;;5035569;28;20045;-65
2022/06/26 05:48:44;;;;;;;21.40;13.82;;;;;;;;;;5024385;28;20784;-64
2022/06/26 05:51:10;;;;;;;22.58;13.63;;;;;;;;;;5024836;28;20051;-64
2022/06/26 05:53:37;;;;;;;18.92;12.90;;;;;;;;;;5039909;28;20099;-64
2022/06/26 05:56:04;;;;;;;24.67;14.40;;;;;;;;;;5029543;28;20045;-65
2022/06/26 05:58:31;;;;;;;18.95;12.82;;;;;;;;;;5039412;28;20045;-64
2022/06/26 06:00:57;;;;;;;17.58;12.27;;;;;;;;;;5010762;28;20058;-64
2022/06/26 06:03:23;;;;;;;16.30;11.57;;;;;;;;;;5029312;28;20489;-65
2022/06/26 06:05:50;;;;;;;17.77;11.95;;;;;;;;;;5037878;28;20486;-65
2022/06/26 06:08:16;;;;;;;16.90;12.00;;;;;;;;;;5026793;28;20366;-65
2022/06/26 06:10:42;;;;;;;16.02;11.50;;;;;;;;;;5019977;28;20045;-65
2022/06/26 06:13:09;;;;;;;20.02;12.27;;;;;;;;;;5014461;28;20058;-65
2022/06/26 06:15:35;;;;;;;17.77;12.15;;;;;;;;;;5031048;28;20147;-64
2022/06/26 06:18:01;;;;;;;15.10;11.00;;;;;;;;;;5031100;28;20056;-65
2022/06/26 06:20:28;;;;;;;16.13;11.05;;;;;;;;;;5020106;28;20136;-65
2022/06/26 06:22:59;;;;;;;15.27;10.93;;;;;;;;;;5043673;28;20055;-65
2022/06/26 06:25:25;;;;;;;22.35;11.95;;;;;;;;;;5017177;28;20049;-64
2022/06/26 06:27:52;;;;;;;14.68;11.02;;;;;;;;;;5039063;28;20083;-65
2022/06/26 06:30:19;;;;;;;16.85;11.90;;;;;;;;;;5015816;28;20458;-64
2022/06/26 06:32:45;;;;;;;14.73;10.77;;;;;;;;;;5035539;28;20049;-65
2022/06/26 06:35:13;;;;;;;15.68;11.05;;;;;;;;;;5036863;28;20087;-65
2022/06/26 06:37:41;;;;;;;14.65;10.95;;;;;;;;;;5036651;28;20055;-65
2022/06/26 06:40:08;;;;;;;13.47;9.87;;;;;;;;;;5032741;28;20045;-65
2022/06/26 06:42:34;;;;;;;14.35;9.90;;;;;;;;;;5017825;28;20053;-66
2022/06/26 06:45:01;;;;;;;14.50;9.38;;;;;;;;;;5028579;28;20057;-65
2022/06/26 06:47:27;;;;;;;11.65;9.05;;;;;;;;;;5030537;28;20051;-64
2022/06/26 06:49:54;;;;;;;14.25;10.40;;;;;;;;;;5036420;28;20123;-64
2022/06/26 06:52:20;;;;;;;11.45;8.93;;;;;;;;;;5030295;28;20049;-66
2022/06/26 06:54:46;;;;;;;10.50;8.93;;;;;;;;;;5027317;28;20044;-66
2022/06/26 06:57:13;;;;;;;12.43;8.45;;;;;;;;;;5033081;28;20444;-65
2022/06/26 06:59:39;;;;;;;12.73;9.25;;;;;;;;;;5020264;28;20053;-66
2022/06/26 07:02:05;;;;;;;13.55;8.10;;;;;;;;;;5038184;28;20057;-65
2022/06/26 07:04:32;;;;;;;12.23;8.48;;;;;;;;;;5030758;28;20137;-64
2022/06/26 07:06:58;;;;;;;10.55;8.05;;;;;;;;;;5035891;28;20406;-65
2022/06/26 07:09:25;;;;;;;12.35;8.90;;;;;;;;;;5032184;28;20048;-64
2022/06/26 07:11:51;;;;;;;11.52;7.47;;;;;;;;;;5026360;28;20515;-65
2022/06/26 07:14:23;;;;;;;11.32;7.53;;;;;;;;;;5028668;28;20084;-65
2022/06/26 07:16:49;;;;;;;10.05;6.75;;;;;;;;;;5024135;28;20140;-64
2022/06/26 07:19:15;;;;;;;11.80;7.68;;;;;;;;;;5031634;28;20049;-64
2022/06/26 07:21:43;;;;;;;13.45;6.95;;;;;;;;;;5025770;28;20056;-65
2022/06/26 07:24:10;;;;;;;10.32;6.43;;;;;;;;;;5024151;28;20049;-65
2022/06/26 07:26:37;;;;;;;12.25;6.88;;;;;;;;;;5031739;28;20129;-64
2022/06/26 07:29:04;;;;;;;10.13;5.28;;;;;;;;;;5018120;28;20050;-65
2022/06/26 07:31:30;;;;;;;8.48;5.15;;;;;;;;;;5037870;28;20045;-64
2022/06/26 07:34:16;;;;;;;9.65;5.30;;;;;;;;;;5020525;28;20943;-65
2022/06/26 07:36:44;;;;;;;9.25;5.03;;;;;;;;;;5027136;28;20053;-64
2022/06/26 07:39:12;;;;;;;6.03;4.10;;;;;;;;;;5040145;28;20159;-65
2022/06/26 07:41:39;;;;;;;7.47;3.63;;;;;;;;;;5022705;28;20155;-66
2022/06/26 07:44:06;;;;;;;7.18;4.15;;;;;;;;;;5030089;28;20053;-65
2022/06/26 07:46:34;;;;;;;7.25;3.38;;;;;;;;;;5019204;28;20052;-65
2022/06/26 07:49:00;;;;;;;;;;;;;;;;;;5035828;28;20053;-65
2022/06/26 07:51:27;;;;;;;6.85;3.55;;;;;;;;;;5030501;28;20387;-65
2022/06/26 07:53:53;;;;;;;6.78;3.60;;;;;;;;;;5031172;28;20045;-65
2022/06/26 07:56:20;;;;;;;5.72;3.40;;;;;;;;;;5040252;28;20502;-65
2022/06/26 07:58:46;;;;;;;6.10;3.25;;;;;;;;;;5027788;28;20049;-65
2022/06/26 08:01:12;;;;;;;5.68;2.50;;;;;;;;;;5031710;28;20053;-65
2022/06/26 08:03:43;;;;;;;5.80;2.88;;;;;;;;;;5022452;28;20890;-65
2022/06/26 08:06:09;;;;;;;5.47;2.63;;;;;;;;;;5042400;28;20053;-65
2022/06/26 08:08:37;;;;;;;5.57;2.70;;;;;;;;;;5034105;28;20048;-65
2022/06/26 08:11:03;;;;;;;6.18;3.00;;;;;;;;;;5037361;28;20115;-65
2022/06/26 08:13:30;;;;;;;3.97;2.35;;;;;;;;;;5038005;28;20575;-65
2022/06/26 08:15:57;;;;;;;7.72;2.65;;;;;;;;;;5016714;28;20528;-64
2022/06/26 08:18:23;;;;;;;4.70;2.35;;;;;;;;;;5035430;28;20148;-65
2022/06/26 08:20:50;;;;;;;3.78;2.22;;;;;;;;;;5039911;28;20064;-64
2022/06/26 08:23:17;;;;;;;4.57;2.00;;;;;;;;;;5041630;28;20063;-65
2022/06/26 08:25:43;;;;;;;6.75;2.58;;;;;;;;;;5029638;28;20053;-65
2022/06/26 08:28:10;;;;;;;5.63;2.70;;;;;;;;;;5011587;28;20502;-64
2022/06/26 08:30:36;;;;;;;6.07;2.63;;;;;;;;;;5028587;28;20049;-65
2022/06/26 08:33:02;;;;;;;6.03;2.70;;;;;;;;;;5028075;28;20056;-64
2022/06/26 08:35:29;;;;;;;4.88;2.55;;;;;;;;;;5042311;28;20056;-65
2022/06/26 08:37:55;;;;;;;4.15;2.90;;;;;;;;;;5036918;28;20053;-65
2022/06/26 08:40:22;;;;;;;4.72;2.80;;;;;;;;;;5041333;28;20131;-66
2022/06/26 08:42:49;;;;;;;4.72;2.80;;;;;;;;;;5032667;28;20520;-65
2022/06/26 08:45:17;;;;;;;8.05;3.42;;;;;;;;;;5019056;28;20051;-65
2022/06/26 08:47:48;;;;;;;4.93;2.30;;;;;;;;;;5028619;28;20059;-65
2022/06/26 08:50:14;;;;;;;6.07;2.38;;;;;;;;;;5022604;28;20052;-65
2022/06/26 08:52:42;;;;;;;5.38;2.90;;;;;;;;;;5020029;28;20047;-64
2022/06/26 08:55:08;;;;;;;7.00;2.75;;;;;;;;;;5038732;28;20105;-65
2022/06/26 08:57:36;;;;;;;5.30;2.83;;;;;;;;;;5024033;28;20053;-65
2022/06/26 09:00:03;;;;;;;6.75;2.90;;;;;;;;;;5034134;28;20564;-64
2022/06/26 09:02:30;;;;;;;6.07;3.27;;;;;;;;;;5023246;28;20049;-66
2022/06/26 09:04:56;;;;;;;6.40;3.08;;;;;;;;;;5037147;28;20045;-64
2022/06/26 09:07:23;;;;;;;4.97;2.72;;;;;;;;;;5030772;28;20502;-64
2022/06/26 09:09:49;;;;;;;4.28;2.72;;;;;;;;;;5034717;28;20081;-65
2022/06/26 09:12:15;;;;;;;5.38;3.03;;;;;;;;;;5040017;28;20042;-64
2022/06/26 09:14:43;;;;;;;5.82;2.50;;;;;;;;;;5025845;28;20057;-65
2022/06/26 09:17:10;;;;;;;4.78;2.60;;;;;;;;;;5036597;28;20075;-65
2022/06/26 09:19:43;;;;;;;4.97;2.78;;;;;;;;;;5029406;28;20533;-64
2022/06/26 09:22:11;;;;;;;5.97;3.10;;;;;;;;;;5046838;28;20242;-64
2022/06/26 09:24:39;;;;;;;4.30;2.92;;;;;;;;;;5020192;28;20060;-65
2022/06/26 09:27:15;;;;;;;5.95;3.38;;;;;;;;;;5021100;28;20049;-66
2022/06/26 09:29:47;;;;;;;6.63;3.10;;;;;;;;;;5036900;28;20321;-66
2022/06/26 09:32:14;;;;;;;6.25;2.55;;;;;;;;;;5025697;28;20423;-65
2022/06/26 09:34:48;;;;;;;5.40;3.00;;;;;;;;;;5035408;28;20432;-64
2022/06/26 09:37:15;;;;;;;5.53;2.50;;;;;;;;;;5030955;28;20291;-65
2022/06/26 09:40:03;;;;;;;6.53;2.75;;;;;;;;;;5016193;28;20050;-65
2022/06/26 09:42:31;;;;;;;3.92;2.30;;;;;;;;;;5023850;28;20059;-65
2022/06/26 09:44:59;;;;;;;6.90;3.38;;;;;;;;;;5038136;28;20054;-65
2022/06/26 09:47:35;;;;;;;5.22;3.03;;;;;;;;;;5041850;28;20079;-65
2022/06/26 09:50:03;;;;;;;7.78;3.78;;;;;;;;;;5023049;28;20207;-64
2022/06/26 09:52:30;;;;;;;9.80;3.33;;;;;;;;;;5031395;28;20051;-65
2022/06/26 09:54:58;;;;;;;6.07;3.53;;;;;;;;;;5024742;28;20052;-65
2022/06/26 09:57:28;;;;;;;7.93;4.00;;;;;;;;;;5039590;28;20497;-65
2022/06/26 09:59:55;;;;;;;8.25;4.00;;;;;;;;;;5032616;28;21342;-64
2022/06/26 10:07:53;;;;;;;6.30;3.67;;;;;;;;;;5028236;28;20072;-65
2022/06/26 10:10:21;;;;;;;7.57;3.90;;;;;;;;;;5036486;28;20595;-65
2022/06/26 10:12:50;;;;;;;8.25;3.45;;;;;;;;;;5031719;28;20053;-65
2022/06/26 10:15:18;;;;;;;5.63;2.90;;;;;;;;;;5039115;28;20045;-65
2022/06/26 10:17:50;;;;;;;7.95;3.55;;;;;;;;;;5029249;28;20341;-65
2022/06/26 10:20:19;;;;;;;7.65;3.58;;;;;;;;;;5028619;28;20049;-67
2022/06/26 10:22:45;;;;;;;7.50;4.28;;;;;;;;;;5024339;28;20045;-64
2022/06/26 10:25:22;;;;;;;8.23;3.83;;;;;;;;;;5023593;28;20050;-65
2022/06/26 10:27:48;;;;;;;9.98;3.58;;;;;;;;;;5029962;28;20041;-65
2022/06/26 10:30:15;;;;;;;6.68;3.17;;;;;;;;;;5030259;28;20060;-65
2022/06/26 10:32:42;;;;;;;6.82;3.38;;;;;;;;;;5036478;28;20045;-65
2022/06/26 10:35:09;;;;;;;7.07;3.88;;;;;;;;;;5013928;28;20056;-66
2022/06/26 10:37:43;;;;;;;6.15;3.05;;;;;;;;;;5031075;28;20059;-65
2022/06/26 10:43:07;;;;;;;10.55;4.05;;;;;;;;;;5025011;28;20048;-64
2022/06/26 10:45:38;;;;;;;7.30;3.70;;;;;;;;;;5033018;28;20079;-64
2022/06/26 10:48:07;;;;;;;9.40;4.05;;;;;;;;;;5017654;28;20243;-64
2022/06/26 10:50:37;;;;;;;8.50;4.03;;;;;;;;;;5018993;28;20156;-66
2022/06/26 10:53:11;;;;;;;7.55;4.35;;;;;;;;;;5016360;28;20053;-66
2022/06/26 10:55:38;;;;;;;9.15;4.20;;;;;;;;;;5035916;28;20044;-65
2022/06/26 10:58:04;;;;;;;6.88;4.15;;;;;;;;;;5023582;28;20053;-66
2022/06/26 11:00:30;;;;;;;6.35;3.60;;;;;;;;;;5037032;28;20641;-65
2022/06/26 11:02:57;;;;;;;6.70;3.10;;;;;;;;;;5020067;28;20522;-65
2022/06/26 11:05:23;;;;;;;9.15;3.00;;;;;;;;;;5017903;28;20049;-66
2022/06/26 11:07:51;;;;;;;6.75;3.63;;;;;;;;;;5038261;28;20044;-66
2022/06/26 11:10:19;;;;;;;8.48;3.47;;;;;;;;;;5018818;28;20055;-68
2022/06/26 11:12:47;;;;;;;6.90;2.97;;;;;;;;;;5025164;28;20474;-65
2022/06/26 11:15:24;;;;;;;7.32;3.00;;;;;;;;;;5013289;28;20045;-65
2022/06/26 11:17:54;;;;;;;5.70;3.03;;;;;;;;;;5015340;28;20052;-65
2022/06/26 11:23:16;;;;;;;7.63;3.75;;;;;;;;;;5018152;28;20460;-65
2022/06/26 11:25:42;;;;;;;6.45;3.78;;;;;;;;;;5033287;28;20048;-65
2022/06/26 11:28:09;;;;;;;5.90;3.40;;;;;;;;;;5021309;28;20498;-65
2022/06/26 11:30:39;;;;;;;7.68;3.83;;;;;;;;;;5023141;28;20497;-65
2022/06/26 11:33:06;;;;;;;9.00;3.72;;;;;;;;;;5026914;28;20493;-65
2022/06/26 11:35:34;;;;;;;10.02;4.18;;;;;;;;;;5034150;28;20051;-65
2022/06/26 11:38:13;;;;;;;10.23;4.15;;;;;;;;;;5034632;28;20549;-66
2022/06/26 11:40:41;;;;;;;7.20;3.38;;;;;;;;;;5012093;28;20136;-66
2022/06/26 11:43:07;;;;;;;4.35;2.78;;;;;;;;;;5019743;28;20053;-64
2022/06/26 11:45:34;;;;;;;8.68;3.60;;;;;;;;;;5013832;28;20041;-64
2022/06/26 11:48:01;;;;;;;6.85;3.55;;;;;;;;;;5033828;28;20049;-66
2022/06/26 11:50:33;;;;;;;6.97;3.05;;;;;;;;;;5028962;28;20049;-66
2022/06/26 11:52:59;;;;;;;9.25;3.42;;;;;;;;;;5035442;28;20659;-65
2022/06/26 11:55:26;;;;;;;5.95;2.80;;;;;;;;;;5016772;28;20992;-66
2022/06/26 11:57:53;;;;;;;7.07;3.15;;;;;;;;;;5020877;28;20052;-66
2022/06/26 12:00:19;;;;;;;7.30;2.83;;;;;;;;;;5020621;28;20051;-66
2022/06/26 12:02:46;;;;;;;4.53;3.03;;;;;;;;;;5019621;28;20052;-66
2022/06/26 12:05:18;;;;;;;8.48;3.05;;;;;;;;;;5037706;28;20067;-66
2022/06/26 12:07:46;;;;;;;6.30;3.00;;;;;;;;;;5029337;28;20163;-65
2022/06/26 12:10:23;;;;;;;7.63;3.55;;;;;;;;;;5033421;28;20053;-66
2022/06/26 12:12:50;;;;;;;5.45;3.38;;;;;;;;;;5033736;28;20045;-65
2022/06/26 12:15:17;;;;;;;6.72;3.38;;;;;;;;;;5032010;28;20494;-65
2022/06/26 12:17:50;;;;;;;5.45;3.28;;;;;;;;;;5027411;28;20489;-66
2022/06/26 12:20:17;;;;;;;8.50;3.05;;;;;;;;;;5030720;28;20067;-65
2022/06/26 12:22:47;;;;;;;6.63;2.60;;;;;;;;;;5033962;28;20053;-66
2022/06/26 12:25:23;;;;;;;5.50;3.03;;;;;;;;;;5013186;28;20450;-64
2022/06/26 12:27:49;;;;;;;5.50;2.72;;;;;;;;;;5041623;28;20052;-65
2022/06/26 12:30:16;;;;;;;5.40;2.40;;;;;;;;;;5026224;28;20549;-65
2022/06/26 12:32:52;;;;;;;6.80;2.30;;;;;;;;;;5024187;28;20049;-65
2022/06/26 12:35:19;;;;;;;5.75;2.72;;;;;;;;;;5023154;28;20045;-65
2022/06/26 12:37:46;;;;;;;5.47;2.63;;;;;;;;;;5024818;28;20148;-65
2022/06/26 12:40:12;;;;;;;5.97;3.10;;;;;;;;;;5041330;28;20053;-66
2022/06/26 12:42:39;;;;;;;7.75;3.00;;;;;;;;;;5027150;28;20049;-65
2022/06/26 12:45:05;;;;;;;5.07;3.20;;;;;;;;;;5029412;28;20048;-65
2022/06/26 12:47:32;;;;;;;9.15;3.92;;;;;;;;;;5030988;28;20061;-67
2022/06/26 12:49:59;;;;;;;6.15;3.33;;;;;;;;;;5013950;28;20107;-65
2022/06/26 12:52:25;;;;;;;6.57;3.40;;;;;;;;;;5027705;28;20049;-65
2022/06/26 12:54:52;;;;;;;7.10;3.50;;;;;;;;;;5014519;28;20089;-66
2022/06/26 12:57:18;;;;;;;10.60;3.08;;;;;;;;;;5036466;28;20052;-65
2022/06/26 12:59:45;;;;;;;4.78;3.35;;;;;;;;;;5013934;28;20049;-65
2022/06/26 13:02:12;;;;;;;5.22;3.10;;;;;;;;;;5035579;28;20106;-65
2022/06/26 13:04:38;;;;;;;6.47;3.22;;;;;;;;;;5023418;28;20049;-64
2022/06/26 13:07:05;;;;;;;5.45;2.60;;;;;;;;;;5026151;28;20049;-64
2022/06/26 13:09:32;;;;;;;4.95;3.00;;;;;;;;;;5030159;28;20495;-64
2022/06/26 13:11:58;;;;;;;6.07;3.00;;;;;;;;;;5030272;28;20587;-64
2022/06/26 13:14:25;;;;;;;6.25;2.78;;;;;;;;;;5038320;28;20478;-65
2022/06/26 13:16:51;;;;;;;7.75;3.30;;;;;;;;;;5031325;28;20486;-64
2022/06/26 13:19:17;;;;;;;5.90;2.85;;;;;;;;;;5008101;28;20045;-65
2022/06/26 13:21:44;;;;;;;5.68;2.67;;;;;;;;;;5035651;28;20060;-64
2022/06/26 13:24:10;;;;;;;7.35;2.90;;;;;;;;;;5023127;28;20049;-63
2022/06/26 13:26:40;;;;;;;6.63;3.20;;;;;;;;;;5033268;28;20846;-64
2022/06/26 13:29:07;;;;;;;7.15;2.95;;;;;;;;;;5031889;28;20455;-63
2022/06/26 13:31:34;;;;;;;7.22;2.10;;;;;;;;;;5028143;28;20048;-64
2022/06/26 13:34:00;;;;;;;4.53;2.15;;;;;;;;;;5036831;28;20060;-64
2022/06/26 13:36:27;;;;;;;5.95;2.10;;;;;;;;;;5017694;28;20465;-63
2022/06/26 13:38:53;;;;;;;5.25;1.92;;;;;;;;;;5034430;28;20041;-64
2022/06/26 13:41:19;;;;;;;5.97;2.30;;;;;;;;;;5022473;28;20337;-65
2022/06/26 13:43:46;;;;;;;11.27;2.30;;;;;;;;;;5034888;28;20517;-64
2022/06/26 13:46:13;;;;;;;6.70;2.25;;;;;;;;;;5030455;28;20136;-63
2022/06/26 13:48:39;;;;;;;5.70;2.10;;;;;;;;;;5012889;28;20045;-64
2022/06/26 13:51:06;;;;;;;7.80;2.20;;;;;;;;;;5029220;28;20046;-64
2022/06/26 13:53:32;;;;;;;6.55;2.35;;;;;;;;;;5023322;28;20177;-63
2022/06/26 13:55:58;;;;;;;5.03;2.00;;;;;;;;;;5018822;28;20053;-64
2022/06/26 13:58:25;;;;;;;3.72;1.83;;;;;;;;;;5014742;28;20047;-63
2022/06/26 14:00:51;;;;;;;4.72;1.98;;;;;;;;;;5027445;28;20053;-63
2022/06/26 14:03:18;;;;;;;4.32;1.90;;;;;;;;;;5026286;28;20107;-64
2022/06/26 14:05:44;;;;;;;6.10;2.13;;;;;;;;;;5017975;28;20136;-64
2022/06/26 14:08:10;;;;;;;5.28;1.88;;;;;;;;;;5019502;28;20056;-64
2022/06/26 14:10:37;;;;;;;4.10;1.60;;;;;;;;;;5014945;28;20049;-64
2022/06/26 14:13:04;;;;;;;5.18;1.73;;;;;;;;;;5032940;28;20136;-65
2022/06/26 14:15:30;;;;;;;4.63;1.90;;;;;;;;;;5020976;28;20124;-63
2022/06/26 14:17:57;;;;;;;6.07;1.70;;;;;;;;;;5034990;28;20060;-64
2022/06/26 14:20:23;;;;;;;5.07;1.38;;;;;;;;;;5031988;28;20053;-64
2022/06/26 14:26:02;;;;;;;3.47;1.50;;;;;;;;;;4993054;28;20044;-64
2022/06/26 14:28:30;;;;;;;4.00;1.38;;;;;;;;;;5009691;28;20140;-64
2022/06/26 14:30:57;;;;;;;;;;;;;;;;;;5036766;28;20269;-63
2022/06/26 14:33:23;;;;;;;4.07;1.30;;;;;;;;;;5026812;28;19960;-64
2022/06/26 14:35:56;;;;;;;6.47;1.60;;;;;;;;;;5029209;28;20052;-64
2022/06/26 14:38:22;;;;;;;4.07;1.83;;;;;;;;;;5029414;28;20044;-62
2022/06/26 14:40:49;;;;;;;5.13;1.60;;;;;;;;;;5025814;28;20052;-63
2022/06/26 14:43:15;;;;;;;3.20;1.40;;;;;;;;;;5034025;28;20049;-64
2022/06/26 14:45:41;;;;;;;4.75;1.73;;;;;;;;;;5019254;28;20047;-64
2022/06/26 14:48:08;;;;;;;5.10;1.30;;;;;;;;;;5019670;28;20056;-63